sensor_id;sensor_type;location;lat;lon;timestamp;temperature;humidity
25688;DHT22;17407;51.120;3.702;2023-08-07T00:00:14;13.90;99.90
25688;DHT22;17407;51.120;3.702;2023-08-07T00:02:39;13.90;99.90
25688;DHT22;17407;51.120;3.702;2023-08-07T00:05:06;13.90;99.90
25688;DHT22;17407;51.120;3.702;2023-08-07T00:07:31;13.90;99.90
25688;DHT22;17407;51.120;3.702;2023-08-07T00:09:57;13.70;99.90
25688;DHT22;17407;51.120;3.702;2023-08-07T00:12:23;13.60;99.90
25688;DHT22;17407;51.120;3.702;2023-08-07T00:14:50;13.60;99.90
25688;DHT22;17407;51.120;3.702;2023-08-07T00:17:16;13.50;99.90
25688;DHT22;17407;51.120;3.702;2023-08-07T00:19:42;13.30;99.90
25688;DHT22;17407;51.120;3.702;2023-08-07T00:22:07;13.40;99.90
25688;DHT22;17407;51.120;3.702;2023-08-07T00:24:33;13.30;99.90
25688;DHT22;17407;51.120;3.702;2023-08-07T00:26:59;13.30;99.90
25688;DHT22;17407;51.120;3.702;2023-08-07T00:29:24;13.30;99.90
25688;DHT22;17407;51.120;3.702;2023-08-07T00:31:50;13.40;99.90
25688;DHT22;17407;51.120;3.702;2023-08-07T00:34:16;13.30;99.90
25688;DHT22;17407;51.120;3.702;2023-08-07T00:36:41;13.20;99.90
25688;DHT22;17407;51.120;3.702;2023-08-07T00:39:07;13.10;99.90
25688;DHT22;17407;51.120;3.702;2023-08-07T00:41:34;13.20;99.90
25688;DHT22;17407;51.120;3.702;2023-08-07T00:43:59;13.30;99.90
25688;DHT22;17407;51.120;3.702;2023-08-07T00:46:26;13.20;99.90
25688;DHT22;17407;51.120;3.702;2023-08-07T00:48:53;13.10;99.90
25688;DHT22;17407;51.120;3.702;2023-08-07T00:51:20;13.20;99.90
25688;DHT22;17407;51.120;3.702;2023-08-07T00:53:47;13.10;99.90
25688;DHT22;17407;51.120;3.702;2023-08-07T00:56:13;13.00;99.90
25688;DHT22;17407;51.120;3.702;2023-08-07T00:58:39;13.00;99.90
25688;DHT22;17407;51.120;3.702;2023-08-07T01:01:05;13.10;99.90
25688;DHT22;17407;51.120;3.702;2023-08-07T01:03:31;13.00;99.90
25688;DHT22;17407;51.120;3.702;2023-08-07T01:05:57;12.80;99.90
25688;DHT22;17407;51.120;3.702;2023-08-07T01:08:24;12.70;99.90
25688;DHT22;17407;51.120;3.702;2023-08-07T01:13:28;12.70;99.90
25688;DHT22;17407;51.120;3.702;2023-08-07T01:15:58;12.80;99.90
25688;DHT22;17407;51.120;3.702;2023-08-07T01:18:26;12.70;99.90
25688;DHT22;17407;51.120;3.702;2023-08-07T01:20:52;12.70;99.90
25688;DHT22;17407;51.120;3.702;2023-08-07T01:23:17;12.80;99.90
25688;DHT22;17407;51.120;3.702;2023-08-07T01:25:43;13.00;99.90
25688;DHT22;17407;51.120;3.702;2023-08-07T01:28:33;12.80;99.90
25688;DHT22;17407;51.120;3.702;2023-08-07T01:31:06;12.80;99.90
25688;DHT22;17407;51.120;3.702;2023-08-07T01:33:43;12.70;99.90
25688;DHT22;17407;51.120;3.702;2023-08-07T01:36:12;12.70;99.90
25688;DHT22;17407;51.120;3.702;2023-08-07T01:38:40;12.60;99.90
25688;DHT22;17407;51.120;3.702;2023-08-07T01:41:07;12.70;99.90
25688;DHT22;17407;51.120;3.702;2023-08-07T01:43:33;12.80;99.90
25688;DHT22;17407;51.120;3.702;2023-08-07T01:45:59;12.70;99.90
25688;DHT22;17407;51.120;3.702;2023-08-07T01:48:25;12.70;99.90
25688;DHT22;17407;51.120;3.702;2023-08-07T01:50:50;12.50;99.90
25688;DHT22;17407;51.120;3.702;2023-08-07T01:53:16;12.50;99.90
25688;DHT22;17407;51.120;3.702;2023-08-07T01:55:42;12.50;99.90
25688;DHT22;17407;51.120;3.702;2023-08-07T01:58:07;12.60;99.90
25688;DHT22;17407;51.120;3.702;2023-08-07T02:00:33;12.80;99.90
25688;DHT22;17407;51.120;3.702;2023-08-07T02:02:58;12.80;99.90
25688;DHT22;17407;51.120;3.702;2023-08-07T02:05:24;12.80;99.90
25688;DHT22;17407;51.120;3.702;2023-08-07T02:07:50;12.70;99.90
25688;DHT22;17407;51.120;3.702;2023-08-07T02:10:15;12.60;99.90
25688;DHT22;17407;51.120;3.702;2023-08-07T02:12:41;12.70;99.90
25688;DHT22;17407;51.120;3.702;2023-08-07T02:15:07;12.70;99.90
25688;DHT22;17407;51.120;3.702;2023-08-07T02:17:33;12.80;99.90
25688;DHT22;17407;51.120;3.702;2023-08-07T02:19:59;12.80;99.90
25688;DHT22;17407;51.120;3.702;2023-08-07T02:22:24;12.80;99.90
25688;DHT22;17407;51.120;3.702;2023-08-07T02:24:50;12.80;99.90
25688;DHT22;17407;51.120;3.702;2023-08-07T02:27:16;12.90;99.90
25688;DHT22;17407;51.120;3.702;2023-08-07T02:29:41;12.80;99.90
25688;DHT22;17407;51.120;3.702;2023-08-07T02:32:07;12.90;99.90
25688;DHT22;17407;51.120;3.702;2023-08-07T02:34:33;12.80;99.90
25688;DHT22;17407;51.120;3.702;2023-08-07T02:36:59;12.80;99.90
25688;DHT22;17407;51.120;3.702;2023-08-07T02:39:24;12.90;99.90
25688;DHT22;17407;51.120;3.702;2023-08-07T02:41:50;12.90;99.90
25688;DHT22;17407;51.120;3.702;2023-08-07T02:44:16;12.90;99.90
25688;DHT22;17407;51.120;3.702;2023-08-07T02:46:45;13.00;99.90
25688;DHT22;17407;51.120;3.702;2023-08-07T02:49:11;13.10;99.90
25688;DHT22;17407;51.120;3.702;2023-08-07T02:51:36;13.00;99.90
25688;DHT22;17407;51.120;3.702;2023-08-07T02:54:02;12.90;99.90
25688;DHT22;17407;51.120;3.702;2023-08-07T02:56:28;13.00;99.90
25688;DHT22;17407;51.120;3.702;2023-08-07T02:58:53;12.90;99.90
25688;DHT22;17407;51.120;3.702;2023-08-07T03:01:20;12.80;99.90
25688;DHT22;17407;51.120;3.702;2023-08-07T03:03:46;12.80;99.90
25688;DHT22;17407;51.120;3.702;2023-08-07T03:06:12;12.90;99.90
25688;DHT22;17407;51.120;3.702;2023-08-07T03:08:37;12.90;99.90
25688;DHT22;17407;51.120;3.702;2023-08-07T03:11:03;12.80;99.90
25688;DHT22;17407;51.120;3.702;2023-08-07T03:13:29;12.80;99.90
25688;DHT22;17407;51.120;3.702;2023-08-07T03:16:13;12.70;99.90
25688;DHT22;17407;51.120;3.702;2023-08-07T03:18:39;12.70;99.90
25688;DHT22;17407;51.120;3.702;2023-08-07T03:21:04;12.60;99.90
25688;DHT22;17407;51.120;3.702;2023-08-07T03:23:30;12.60;99.90
25688;DHT22;17407;51.120;3.702;2023-08-07T03:26:07;12.60;99.90
25688;DHT22;17407;51.120;3.702;2023-08-07T03:28:34;12.60;99.90
25688;DHT22;17407;51.120;3.702;2023-08-07T03:30:59;12.60;99.90
25688;DHT22;17407;51.120;3.702;2023-08-07T03:33:25;12.60;99.90
25688;DHT22;17407;51.120;3.702;2023-08-07T03:35:51;12.50;99.90
25688;DHT22;17407;51.120;3.702;2023-08-07T03:38:17;12.50;99.90
25688;DHT22;17407;51.120;3.702;2023-08-07T03:40:43;12.50;99.90
25688;DHT22;17407;51.120;3.702;2023-08-07T03:43:09;12.50;99.90
25688;DHT22;17407;51.120;3.702;2023-08-07T03:45:34;12.50;99.90
25688;DHT22;17407;51.120;3.702;2023-08-07T03:48:00;12.50;99.90
25688;DHT22;17407;51.120;3.702;2023-08-07T03:50:26;12.40;99.90
25688;DHT22;17407;51.120;3.702;2023-08-07T03:52:52;12.30;99.90
25688;DHT22;17407;51.120;3.702;2023-08-07T03:55:17;12.30;99.90
25688;DHT22;17407;51.120;3.702;2023-08-07T03:57:43;12.10;99.90
25688;DHT22;17407;51.120;3.702;2023-08-07T04:00:09;12.10;99.90
25688;DHT22;17407;51.120;3.702;2023-08-07T04:02:35;12.10;99.90
25688;DHT22;17407;51.120;3.702;2023-08-07T04:05:01;12.00;99.90
25688;DHT22;17407;51.120;3.702;2023-08-07T04:07:27;12.00;99.90
25688;DHT22;17407;51.120;3.702;2023-08-07T04:09:52;12.10;99.90
25688;DHT22;17407;51.120;3.702;2023-08-07T04:12:18;12.10;99.90
25688;DHT22;17407;51.120;3.702;2023-08-07T04:14:43;12.20;99.90
25688;DHT22;17407;51.120;3.702;2023-08-07T04:17:09;12.10;99.90
25688;DHT22;17407;51.120;3.702;2023-08-07T04:19:35;12.00;99.90
25688;DHT22;17407;51.120;3.702;2023-08-07T04:22:00;11.80;99.90
25688;DHT22;17407;51.120;3.702;2023-08-07T04:24:26;11.70;99.90
25688;DHT22;17407;51.120;3.702;2023-08-07T04:26:51;11.70;99.90
25688;DHT22;17407;51.120;3.702;2023-08-07T04:29:18;12.00;99.90
25688;DHT22;17407;51.120;3.702;2023-08-07T04:31:44;11.90;99.90
25688;DHT22;17407;51.120;3.702;2023-08-07T04:34:09;12.00;99.90
25688;DHT22;17407;51.120;3.702;2023-08-07T04:36:35;12.00;99.90
25688;DHT22;17407;51.120;3.702;2023-08-07T04:39:01;11.90;99.90
25688;DHT22;17407;51.120;3.702;2023-08-07T04:41:27;12.00;99.90
25688;DHT22;17407;51.120;3.702;2023-08-07T04:43:52;12.00;99.90
25688;DHT22;17407;51.120;3.702;2023-08-07T04:56:17;12.40;99.90
25688;DHT22;17407;51.120;3.702;2023-08-07T04:58:43;12.50;99.90
25688;DHT22;17407;51.120;3.702;2023-08-07T05:01:08;12.60;99.90
25688;DHT22;17407;51.120;3.702;2023-08-07T05:03:34;12.50;99.90
25688;DHT22;17407;51.120;3.702;2023-08-07T05:06:01;12.40;99.90
25688;DHT22;17407;51.120;3.702;2023-08-07T05:08:27;12.60;99.90
25688;DHT22;17407;51.120;3.702;2023-08-07T05:10:53;12.60;99.90
25688;DHT22;17407;51.120;3.702;2023-08-07T05:13:19;12.50;99.90
25688;DHT22;17407;51.120;3.702;2023-08-07T05:15:47;12.50;99.90
25688;DHT22;17407;51.120;3.702;2023-08-07T05:18:13;12.70;99.90
25688;DHT22;17407;51.120;3.702;2023-08-07T05:20:38;12.70;99.90
25688;DHT22;17407;51.120;3.702;2023-08-07T05:23:04;12.80;99.90
25688;DHT22;17407;51.120;3.702;2023-08-07T05:25:30;12.60;99.90
25688;DHT22;17407;51.120;3.702;2023-08-07T05:27:55;12.70;99.90
25688;DHT22;17407;51.120;3.702;2023-08-07T05:30:21;12.90;99.90
25688;DHT22;17407;51.120;3.702;2023-08-07T05:32:47;13.00;99.90
25688;DHT22;17407;51.120;3.702;2023-08-07T05:35:14;13.10;99.90
25688;DHT22;17407;51.120;3.702;2023-08-07T05:37:39;13.10;99.90
25688;DHT22;17407;51.120;3.702;2023-08-07T05:40:06;13.20;99.90
25688;DHT22;17407;51.120;3.702;2023-08-07T05:42:32;13.30;99.90
25688;DHT22;17407;51.120;3.702;2023-08-07T05:44:58;13.20;99.90
25688;DHT22;17407;51.120;3.702;2023-08-07T05:47:24;13.40;99.90
25688;DHT22;17407;51.120;3.702;2023-08-07T05:49:50;13.50;99.90
25688;DHT22;17407;51.120;3.702;2023-08-07T05:52:17;13.70;99.90
25688;DHT22;17407;51.120;3.702;2023-08-07T05:54:43;13.90;99.90
25688;DHT22;17407;51.120;3.702;2023-08-07T05:57:09;14.00;99.90
25688;DHT22;17407;51.120;3.702;2023-08-07T05:59:35;14.10;99.90
25688;DHT22;17407;51.120;3.702;2023-08-07T06:02:02;14.10;99.90
25688;DHT22;17407;51.120;3.702;2023-08-07T06:04:27;14.20;99.90
25688;DHT22;17407;51.120;3.702;2023-08-07T06:06:53;14.30;99.90
25688;DHT22;17407;51.120;3.702;2023-08-07T06:09:19;14.50;99.90
25688;DHT22;17407;51.120;3.702;2023-08-07T06:11:47;14.40;99.90
25688;DHT22;17407;51.120;3.702;2023-08-07T06:14:13;14.40;99.90
25688;DHT22;17407;51.120;3.702;2023-08-07T06:16:38;14.60;99.90
25688;DHT22;17407;51.120;3.702;2023-08-07T06:19:04;14.50;99.90
25688;DHT22;17407;51.120;3.702;2023-08-07T06:21:30;14.60;99.90
25688;DHT22;17407;51.120;3.702;2023-08-07T06:23:56;14.90;99.90
25688;DHT22;17407;51.120;3.702;2023-08-07T06:26:22;15.00;99.90
25688;DHT22;17407;51.120;3.702;2023-08-07T06:28:48;15.00;99.90
25688;DHT22;17407;51.120;3.702;2023-08-07T06:31:15;15.20;99.90
25688;DHT22;17407;51.120;3.702;2023-08-07T06:33:41;15.30;99.90
25688;DHT22;17407;51.120;3.702;2023-08-07T06:36:07;15.50;99.90
25688;DHT22;17407;51.120;3.702;2023-08-07T06:38:34;15.40;99.90
25688;DHT22;17407;51.120;3.702;2023-08-07T06:41:00;15.50;99.90
25688;DHT22;17407;51.120;3.702;2023-08-07T06:43:26;15.50;99.90
25688;DHT22;17407;51.120;3.702;2023-08-07T06:45:53;15.60;99.90
25688;DHT22;17407;51.120;3.702;2023-08-07T06:48:19;15.80;99.90
25688;DHT22;17407;51.120;3.702;2023-08-07T06:50:46;15.90;99.90
25688;DHT22;17407;51.120;3.702;2023-08-07T06:53:12;16.10;99.90
25688;DHT22;17407;51.120;3.702;2023-08-07T06:55:38;16.30;99.90
25688;DHT22;17407;51.120;3.702;2023-08-07T06:58:03;16.40;99.90
25688;DHT22;17407;51.120;3.702;2023-08-07T07:00:29;16.40;99.90
25688;DHT22;17407;51.120;3.702;2023-08-07T07:02:55;16.30;99.90
25688;DHT22;17407;51.120;3.702;2023-08-07T07:05:21;16.50;99.90
25688;DHT22;17407;51.120;3.702;2023-08-07T07:07:46;16.60;99.90
25688;DHT22;17407;51.120;3.702;2023-08-07T07:10:12;16.80;99.90
25688;DHT22;17407;51.120;3.702;2023-08-07T07:12:38;17.00;99.90
25688;DHT22;17407;51.120;3.702;2023-08-07T07:15:04;17.20;99.90
25688;DHT22;17407;51.120;3.702;2023-08-07T07:17:29;17.20;99.90
25688;DHT22;17407;51.120;3.702;2023-08-07T07:19:55;17.20;99.90
25688;DHT22;17407;51.120;3.702;2023-08-07T07:22:22;17.30;99.90
25688;DHT22;17407;51.120;3.702;2023-08-07T07:24:48;17.30;99.90
25688;DHT22;17407;51.120;3.702;2023-08-07T07:27:13;17.50;99.90
25688;DHT22;17407;51.120;3.702;2023-08-07T07:29:39;17.70;99.90
25688;DHT22;17407;51.120;3.702;2023-08-07T07:32:05;17.80;99.90
25688;DHT22;17407;51.120;3.702;2023-08-07T07:34:31;18.00;99.90
25688;DHT22;17407;51.120;3.702;2023-08-07T07:36:58;18.10;99.90
25688;DHT22;17407;51.120;3.702;2023-08-07T07:39:24;18.30;99.90
25688;DHT22;17407;51.120;3.702;2023-08-07T07:41:50;18.20;99.90
25688;DHT22;17407;51.120;3.702;2023-08-07T07:44:15;18.50;99.90
25688;DHT22;17407;51.120;3.702;2023-08-07T07:46:41;18.60;99.90
25688;DHT22;17407;51.120;3.702;2023-08-07T07:49:06;18.70;99.90
25688;DHT22;17407;51.120;3.702;2023-08-07T07:51:32;18.70;99.90
25688;DHT22;17407;51.120;3.702;2023-08-07T07:53:59;18.70;99.90
25688;DHT22;17407;51.120;3.702;2023-08-07T07:56:24;18.60;99.90
25688;DHT22;17407;51.120;3.702;2023-08-07T07:58:50;18.70;99.90
25688;DHT22;17407;51.120;3.702;2023-08-07T08:01:16;18.70;99.90
25688;DHT22;17407;51.120;3.702;2023-08-07T08:03:43;18.70;99.90
25688;DHT22;17407;51.120;3.702;2023-08-07T08:06:11;18.80;99.90
25688;DHT22;17407;51.120;3.702;2023-08-07T08:08:36;19.00;99.90
25688;DHT22;17407;51.120;3.702;2023-08-07T08:11:02;19.10;99.90
25688;DHT22;17407;51.120;3.702;2023-08-07T08:13:27;19.10;99.90
25688;DHT22;17407;51.120;3.702;2023-08-07T08:15:54;19.10;99.90
25688;DHT22;17407;51.120;3.702;2023-08-07T08:18:20;19.30;99.90
25688;DHT22;17407;51.120;3.702;2023-08-07T08:20:45;19.30;99.90
25688;DHT22;17407;51.120;3.702;2023-08-07T08:23:11;19.10;99.90
25688;DHT22;17407;51.120;3.702;2023-08-07T08:25:37;19.00;99.90
25688;DHT22;17407;51.120;3.702;2023-08-07T08:28:03;18.80;99.90
25688;DHT22;17407;51.120;3.702;2023-08-07T08:30:29;18.80;99.90
25688;DHT22;17407;51.120;3.702;2023-08-07T08:32:54;18.90;99.90
25688;DHT22;17407;51.120;3.702;2023-08-07T08:35:20;19.00;99.90
25688;DHT22;17407;51.120;3.702;2023-08-07T08:37:46;19.10;99.90
25688;DHT22;17407;51.120;3.702;2023-08-07T08:40:11;19.40;99.90
25688;DHT22;17407;51.120;3.702;2023-08-07T08:42:39;19.70;99.90
25688;DHT22;17407;51.120;3.702;2023-08-07T08:45:08;19.80;99.90
25688;DHT22;17407;51.120;3.702;2023-08-07T08:47:39;19.70;99.90
25688;DHT22;17407;51.120;3.702;2023-08-07T08:50:07;19.80;99.90
25688;DHT22;17407;51.120;3.702;2023-08-07T08:52:34;19.90;99.90
25688;DHT22;17407;51.120;3.702;2023-08-07T08:55:01;19.90;99.90
25688;DHT22;17407;51.120;3.702;2023-08-07T08:57:28;20.00;99.90
25688;DHT22;17407;51.120;3.702;2023-08-07T08:59:56;20.10;99.90
25688;DHT22;17407;51.120;3.702;2023-08-07T09:02:22;20.10;99.90
25688;DHT22;17407;51.120;3.702;2023-08-07T09:04:48;20.00;99.90
25688;DHT22;17407;51.120;3.702;2023-08-07T09:07:15;19.90;99.90
25688;DHT22;17407;51.120;3.702;2023-08-07T09:09:44;20.00;99.90
25688;DHT22;17407;51.120;3.702;2023-08-07T09:12:18;20.00;99.90
25688;DHT22;17407;51.120;3.702;2023-08-07T09:14:48;20.10;99.90
25688;DHT22;17407;51.120;3.702;2023-08-07T09:17:15;20.30;99.90
25688;DHT22;17407;51.120;3.702;2023-08-07T09:19:42;20.40;99.90
25688;DHT22;17407;51.120;3.702;2023-08-07T09:22:08;20.50;99.90
25688;DHT22;17407;51.120;3.702;2023-08-07T09:24:34;20.60;99.90
25688;DHT22;17407;51.120;3.702;2023-08-07T09:27:00;20.60;99.90
25688;DHT22;17407;51.120;3.702;2023-08-07T09:29:26;20.80;99.90
25688;DHT22;17407;51.120;3.702;2023-08-07T09:31:54;21.00;99.90
25688;DHT22;17407;51.120;3.702;2023-08-07T09:34:20;21.00;99.90
25688;DHT22;17407;51.120;3.702;2023-08-07T09:36:46;21.00;99.90
25688;DHT22;17407;51.120;3.702;2023-08-07T09:39:12;21.00;99.90
25688;DHT22;17407;51.120;3.702;2023-08-07T09:41:37;21.00;99.90
25688;DHT22;17407;51.120;3.702;2023-08-07T09:44:10;21.00;99.90
25688;DHT22;17407;51.120;3.702;2023-08-07T09:46:45;21.20;99.90
25688;DHT22;17407;51.120;3.702;2023-08-07T09:49:11;21.40;99.90
25688;DHT22;17407;51.120;3.702;2023-08-07T09:51:45;21.40;99.90
25688;DHT22;17407;51.120;3.702;2023-08-07T09:54:11;21.70;99.90
25688;DHT22;17407;51.120;3.702;2023-08-07T09:56:38;21.80;99.90
25688;DHT22;17407;51.120;3.702;2023-08-07T09:59:04;21.80;99.90
25688;DHT22;17407;51.120;3.702;2023-08-07T10:01:30;21.60;99.90
25688;DHT22;17407;51.120;3.702;2023-08-07T10:03:57;21.50;99.90
25688;DHT22;17407;51.120;3.702;2023-08-07T10:06:22;21.60;99.90
25688;DHT22;17407;51.120;3.702;2023-08-07T10:08:49;21.80;99.90
25688;DHT22;17407;51.120;3.702;2023-08-07T10:11:15;21.80;99.90
25688;DHT22;17407;51.120;3.702;2023-08-07T10:13:42;21.80;99.90
25688;DHT22;17407;51.120;3.702;2023-08-07T10:16:07;22.20;99.90
25688;DHT22;17407;51.120;3.702;2023-08-07T10:18:34;22.50;99.90
25688;DHT22;17407;51.120;3.702;2023-08-07T10:21:03;22.40;99.90
25688;DHT22;17407;51.120;3.702;2023-08-07T10:23:29;22.30;99.90
25688;DHT22;17407;51.120;3.702;2023-08-07T10:25:56;22.20;99.90
25688;DHT22;17407;51.120;3.702;2023-08-07T10:28:24;22.50;99.90
25688;DHT22;17407;51.120;3.702;2023-08-07T10:30:51;22.50;99.90
25688;DHT22;17407;51.120;3.702;2023-08-07T10:33:18;22.50;99.90
25688;DHT22;17407;51.120;3.702;2023-08-07T10:35:47;22.90;99.90
25688;DHT22;17407;51.120;3.702;2023-08-07T10:38:14;23.30;99.90
25688;DHT22;17407;51.120;3.702;2023-08-07T10:41:05;23.20;99.90
25688;DHT22;17407;51.120;3.702;2023-08-07T10:43:40;22.90;99.90
25688;DHT22;17407;51.120;3.702;2023-08-07T10:46:08;22.80;99.90
25688;DHT22;17407;51.120;3.702;2023-08-07T10:48:42;23.50;99.90
25688;DHT22;17407;51.120;3.702;2023-08-07T10:51:08;24.60;99.90
25688;DHT22;17407;51.120;3.702;2023-08-07T10:53:40;25.30;99.90
25688;DHT22;17407;51.120;3.702;2023-08-07T10:56:17;25.90;99.90
25688;DHT22;17407;51.120;3.702;2023-08-07T10:58:49;25.80;99.90
25688;DHT22;17407;51.120;3.702;2023-08-07T11:03:51;25.20;99.90
25688;DHT22;17407;51.120;3.702;2023-08-07T11:06:18;25.80;99.90
25688;DHT22;17407;51.120;3.702;2023-08-07T11:08:48;25.90;99.90
25688;DHT22;17407;51.120;3.702;2023-08-07T11:11:14;25.40;99.90
25688;DHT22;17407;51.120;3.702;2023-08-07T11:13:39;24.90;99.90
25688;DHT22;17407;51.120;3.702;2023-08-07T11:16:06;24.90;99.90
25688;DHT22;17407;51.120;3.702;2023-08-07T11:18:32;25.60;99.90
25688;DHT22;17407;51.120;3.702;2023-08-07T11:20:58;26.30;99.90
25688;DHT22;17407;51.120;3.702;2023-08-07T11:23:30;26.10;99.90
25688;DHT22;17407;51.120;3.702;2023-08-07T11:25:56;25.30;99.90
25688;DHT22;17407;51.120;3.702;2023-08-07T11:28:22;24.80;99.90
25688;DHT22;17407;51.120;3.702;2023-08-07T11:30:51;24.70;99.90
25688;DHT22;17407;51.120;3.702;2023-08-07T11:33:18;24.30;99.90
25688;DHT22;17407;51.120;3.702;2023-08-07T11:35:45;24.30;99.90
25688;DHT22;17407;51.120;3.702;2023-08-07T11:38:11;24.20;99.90
25688;DHT22;17407;51.120;3.702;2023-08-07T11:40:37;24.50;99.90
25688;DHT22;17407;51.120;3.702;2023-08-07T11:43:03;24.80;99.90
25688;DHT22;17407;51.120;3.702;2023-08-07T11:45:29;24.80;99.90
25688;DHT22;17407;51.120;3.702;2023-08-07T11:47:55;25.10;99.90
25688;DHT22;17407;51.120;3.702;2023-08-07T11:50:22;25.10;99.90
25688;DHT22;17407;51.120;3.702;2023-08-07T11:52:48;24.80;99.90
25688;DHT22;17407;51.120;3.702;2023-08-07T11:55:14;24.40;99.90
25688;DHT22;17407;51.120;3.702;2023-08-07T11:57:40;24.00;99.90
25688;DHT22;17407;51.120;3.702;2023-08-07T12:00:08;23.70;99.90
25688;DHT22;17407;51.120;3.702;2023-08-07T12:02:44;23.30;99.90
25688;DHT22;17407;51.120;3.702;2023-08-07T12:05:10;23.00;99.90
25688;DHT22;17407;51.120;3.702;2023-08-07T12:07:37;22.90;99.90
25688;DHT22;17407;51.120;3.702;2023-08-07T12:10:10;23.10;99.90
25688;DHT22;17407;51.120;3.702;2023-08-07T12:12:37;23.40;99.90
25688;DHT22;17407;51.120;3.702;2023-08-07T12:15:10;23.70;99.90
25688;DHT22;17407;51.120;3.702;2023-08-07T12:17:36;23.80;99.90
25688;DHT22;17407;51.120;3.702;2023-08-07T12:20:07;23.60;99.90
25688;DHT22;17407;51.120;3.702;2023-08-07T12:22:35;23.40;99.90
25688;DHT22;17407;51.120;3.702;2023-08-07T12:25:02;23.30;99.90
25688;DHT22;17407;51.120;3.702;2023-08-07T12:27:27;23.20;99.90
25688;DHT22;17407;51.120;3.702;2023-08-07T12:29:53;23.10;99.90
25688;DHT22;17407;51.120;3.702;2023-08-07T12:32:19;23.00;99.90
25688;DHT22;17407;51.120;3.702;2023-08-07T12:34:45;23.20;99.90
25688;DHT22;17407;51.120;3.702;2023-08-07T12:37:10;23.00;99.90
25688;DHT22;17407;51.120;3.702;2023-08-07T12:39:36;22.80;99.90
25688;DHT22;17407;51.120;3.702;2023-08-07T12:42:02;22.70;99.90
25688;DHT22;17407;51.120;3.702;2023-08-07T12:44:30;22.70;99.90
25688;DHT22;17407;51.120;3.702;2023-08-07T12:46:56;22.80;99.90
25688;DHT22;17407;51.120;3.702;2023-08-07T12:49:21;22.70;99.90
25688;DHT22;17407;51.120;3.702;2023-08-07T12:51:47;22.50;99.90
25688;DHT22;17407;51.120;3.702;2023-08-07T12:54:13;22.10;99.90
25688;DHT22;17407;51.120;3.702;2023-08-07T12:56:38;21.90;99.90
25688;DHT22;17407;51.120;3.702;2023-08-07T12:59:04;21.70;99.90
25688;DHT22;17407;51.120;3.702;2023-08-07T13:01:29;21.50;99.90
25688;DHT22;17407;51.120;3.702;2023-08-07T13:03:55;21.60;99.90
25688;DHT22;17407;51.120;3.702;2023-08-07T13:06:21;21.70;99.90
25688;DHT22;17407;51.120;3.702;2023-08-07T13:08:47;21.70;99.90
25688;DHT22;17407;51.120;3.702;2023-08-07T13:11:13;21.70;99.90
25688;DHT22;17407;51.120;3.702;2023-08-07T13:13:38;21.60;99.90
25688;DHT22;17407;51.120;3.702;2023-08-07T13:16:04;21.70;99.90
25688;DHT22;17407;51.120;3.702;2023-08-07T13:18:30;21.60;99.90
25688;DHT22;17407;51.120;3.702;2023-08-07T13:20:56;21.60;99.90
25688;DHT22;17407;51.120;3.702;2023-08-07T13:23:22;21.50;99.90
25688;DHT22;17407;51.120;3.702;2023-08-07T13:25:48;21.30;99.90
25688;DHT22;17407;51.120;3.702;2023-08-07T13:28:14;21.20;99.90
25688;DHT22;17407;51.120;3.702;2023-08-07T13:30:40;21.30;99.90
25688;DHT22;17407;51.120;3.702;2023-08-07T13:33:06;21.30;99.90
25688;DHT22;17407;51.120;3.702;2023-08-07T13:35:32;21.40;99.90
25688;DHT22;17407;51.120;3.702;2023-08-07T13:37:58;21.60;99.90
25688;DHT22;17407;51.120;3.702;2023-08-07T13:40:24;21.80;99.90
25688;DHT22;17407;51.120;3.702;2023-08-07T13:42:49;22.10;99.90
25688;DHT22;17407;51.120;3.702;2023-08-07T13:45:15;22.30;99.90
25688;DHT22;17407;51.120;3.702;2023-08-07T13:47:41;22.60;99.90
25688;DHT22;17407;51.120;3.702;2023-08-07T13:50:07;22.70;99.90
25688;DHT22;17407;51.120;3.702;2023-08-07T13:52:34;22.60;99.90
25688;DHT22;17407;51.120;3.702;2023-08-07T13:55:00;22.70;99.90
25688;DHT22;17407;51.120;3.702;2023-08-07T13:57:26;22.80;99.90
25688;DHT22;17407;51.120;3.702;2023-08-07T13:59:51;22.80;99.90
25688;DHT22;17407;51.120;3.702;2023-08-07T14:02:19;22.90;99.90
25688;DHT22;17407;51.120;3.702;2023-08-07T14:04:45;22.70;99.90
25688;DHT22;17407;51.120;3.702;2023-08-07T14:07:11;22.70;99.90
25688;DHT22;17407;51.120;3.702;2023-08-07T14:09:36;22.40;99.90
25688;DHT22;17407;51.120;3.702;2023-08-07T14:12:03;22.20;99.90
25688;DHT22;17407;51.120;3.702;2023-08-07T14:14:28;22.10;99.90
25688;DHT22;17407;51.120;3.702;2023-08-07T14:16:54;21.90;99.90
25688;DHT22;17407;51.120;3.702;2023-08-07T14:19:23;21.90;99.90
25688;DHT22;17407;51.120;3.702;2023-08-07T14:21:49;21.70;99.90
25688;DHT22;17407;51.120;3.702;2023-08-07T14:24:14;21.60;99.90
25688;DHT22;17407;51.120;3.702;2023-08-07T14:26:42;21.60;99.90
25688;DHT22;17407;51.120;3.702;2023-08-07T14:29:08;21.90;99.90
25688;DHT22;17407;51.120;3.702;2023-08-07T14:31:34;22.00;99.90
25688;DHT22;17407;51.120;3.702;2023-08-07T14:33:59;21.90;99.90
25688;DHT22;17407;51.120;3.702;2023-08-07T14:36:25;21.90;99.90
25688;DHT22;17407;51.120;3.702;2023-08-07T14:38:51;21.90;99.90
25688;DHT22;17407;51.120;3.702;2023-08-07T14:41:17;22.10;99.90
25688;DHT22;17407;51.120;3.702;2023-08-07T14:43:44;22.30;99.90
25688;DHT22;17407;51.120;3.702;2023-08-07T14:46:10;22.20;99.90
25688;DHT22;17407;51.120;3.702;2023-08-07T14:48:35;22.20;99.90
25688;DHT22;17407;51.120;3.702;2023-08-07T14:51:01;22.00;99.90
25688;DHT22;17407;51.120;3.702;2023-08-07T14:53:27;22.10;99.90
25688;DHT22;17407;51.120;3.702;2023-08-07T14:55:53;22.20;99.90
25688;DHT22;17407;51.120;3.702;2023-08-07T14:58:18;22.10;99.90
25688;DHT22;17407;51.120;3.702;2023-08-07T15:00:44;22.20;99.90
25688;DHT22;17407;51.120;3.702;2023-08-07T15:03:10;22.20;99.90
25688;DHT22;17407;51.120;3.702;2023-08-07T15:05:36;22.00;99.90
25688;DHT22;17407;51.120;3.702;2023-08-07T15:08:02;21.80;99.90
25688;DHT22;17407;51.120;3.702;2023-08-07T15:10:28;21.70;99.90
25688;DHT22;17407;51.120;3.702;2023-08-07T15:12:54;21.90;99.90
25688;DHT22;17407;51.120;3.702;2023-08-07T15:15:21;22.00;99.90
25688;DHT22;17407;51.120;3.702;2023-08-07T15:17:47;22.00;99.90
25688;DHT22;17407;51.120;3.702;2023-08-07T15:20:13;22.00;99.90
25688;DHT22;17407;51.120;3.702;2023-08-07T15:22:38;22.00;99.90
25688;DHT22;17407;51.120;3.702;2023-08-07T15:25:04;22.10;99.90
25688;DHT22;17407;51.120;3.702;2023-08-07T15:27:30;22.20;99.90
25688;DHT22;17407;51.120;3.702;2023-08-07T15:29:56;22.20;99.90
25688;DHT22;17407;51.120;3.702;2023-08-07T15:32:21;22.20;99.90
25688;DHT22;17407;51.120;3.702;2023-08-07T15:34:47;22.10;99.90
25688;DHT22;17407;51.120;3.702;2023-08-07T15:37:13;22.10;99.90
25688;DHT22;17407;51.120;3.702;2023-08-07T15:39:39;22.00;99.90